sensor_id;sensor_type;location;lat;lon;timestamp;temperature;humidity
72883;DHT22;61017;37.812;-122.286;2022-12-07T00:00:39;17.30;78.90
72883;DHT22;61017;37.812;-122.286;2022-12-07T00:02:29;17.30;78.90
72883;DHT22;61017;37.812;-122.286;2022-12-07T00:04:20;17.30;78.90
72883;DHT22;61017;37.812;-122.286;2022-12-07T00:06:11;17.30;78.90
72883;DHT22;61017;37.812;-122.286;2022-12-07T00:08:04;17.30;78.90
72883;DHT22;61017;37.812;-122.286;2022-12-07T00:09:54;17.30;78.90
72883;DHT22;61017;37.812;-122.286;2022-12-07T00:11:45;17.30;78.80
72883;DHT22;61017;37.812;-122.286;2022-12-07T00:13:38;17.30;78.80
72883;DHT22;61017;37.812;-122.286;2022-12-07T00:15:28;17.30;78.90
72883;DHT22;61017;37.812;-122.286;2022-12-07T00:17:19;17.30;78.80
72883;DHT22;61017;37.812;-122.286;2022-12-07T00:19:13;17.30;78.80
72883;DHT22;61017;37.812;-122.286;2022-12-07T00:21:10;17.30;78.80
72883;DHT22;61017;37.812;-122.286;2022-12-07T00:23:00;17.30;78.80
72883;DHT22;61017;37.812;-122.286;2022-12-07T00:24:50;17.30;78.70
72883;DHT22;61017;37.812;-122.286;2022-12-07T00:26:41;17.30;78.80
72883;DHT22;61017;37.812;-122.286;2022-12-07T00:28:32;17.30;78.70
72883;DHT22;61017;37.812;-122.286;2022-12-07T00:30:23;17.30;78.70
72883;DHT22;61017;37.812;-122.286;2022-12-07T00:32:13;17.30;78.80
72883;DHT22;61017;37.812;-122.286;2022-12-07T00:34:04;17.30;78.70
72883;DHT22;61017;37.812;-122.286;2022-12-07T00:35:58;17.30;78.60
72883;DHT22;61017;37.812;-122.286;2022-12-07T00:37:48;17.30;78.10
72883;DHT22;61017;37.812;-122.286;2022-12-07T00:39:47;17.30;78.50
72883;DHT22;61017;37.812;-122.286;2022-12-07T00:41:37;17.30;78.60
72883;DHT22;61017;37.812;-122.286;2022-12-07T00:43:27;17.30;78.60
72883;DHT22;61017;37.812;-122.286;2022-12-07T00:45:18;17.30;78.50
72883;DHT22;61017;37.812;-122.286;2022-12-07T00:47:08;17.30;78.50
72883;DHT22;61017;37.812;-122.286;2022-12-07T00:48:57;17.30;78.50
72883;DHT22;61017;37.812;-122.286;2022-12-07T00:50:48;17.30;78.50
72883;DHT22;61017;37.812;-122.286;2022-12-07T00:52:40;17.30;78.50
72883;DHT22;61017;37.812;-122.286;2022-12-07T00:54:30;17.30;78.60
72883;DHT22;61017;37.812;-122.286;2022-12-07T00:56:28;17.30;78.60
72883;DHT22;61017;37.812;-122.286;2022-12-07T00:58:19;17.30;78.50
72883;DHT22;61017;37.812;-122.286;2022-12-07T01:00:11;17.30;78.50
72883;DHT22;61017;37.812;-122.286;2022-12-07T01:02:01;17.30;79.00
72883;DHT22;61017;37.812;-122.286;2022-12-07T01:03:56;17.30;78.40
72883;DHT22;61017;37.812;-122.286;2022-12-07T01:05:53;17.30;78.50
72883;DHT22;61017;37.812;-122.286;2022-12-07T01:07:43;17.30;78.50
72883;DHT22;61017;37.812;-122.286;2022-12-07T01:09:33;17.30;78.50
72883;DHT22;61017;37.812;-122.286;2022-12-07T01:11:26;17.30;78.50
72883;DHT22;61017;37.812;-122.286;2022-12-07T01:13:21;17.30;78.40
72883;DHT22;61017;37.812;-122.286;2022-12-07T01:15:11;17.30;78.50
72883;DHT22;61017;37.812;-122.286;2022-12-07T01:17:01;17.30;78.50
72883;DHT22;61017;37.812;-122.286;2022-12-07T01:18:57;17.30;78.40
72883;DHT22;61017;37.812;-122.286;2022-12-07T01:21:19;17.30;78.40
72883;DHT22;61017;37.812;-122.286;2022-12-07T01:23:08;17.30;78.40
72883;DHT22;61017;37.812;-122.286;2022-12-07T01:25:02;17.30;78.40
72883;DHT22;61017;37.812;-122.286;2022-12-07T01:26:53;17.30;78.40
72883;DHT22;61017;37.812;-122.286;2022-12-07T01:28:44;17.30;78.40
72883;DHT22;61017;37.812;-122.286;2022-12-07T01:30:34;17.30;78.40
72883;DHT22;61017;37.812;-122.286;2022-12-07T01:32:26;17.30;78.30
72883;DHT22;61017;37.812;-122.286;2022-12-07T01:34:16;17.30;78.30
72883;DHT22;61017;37.812;-122.286;2022-12-07T01:36:17;17.30;78.30
72883;DHT22;61017;37.812;-122.286;2022-12-07T01:38:07;17.30;78.40
72883;DHT22;61017;37.812;-122.286;2022-12-07T01:40:06;17.30;78.30
72883;DHT22;61017;37.812;-122.286;2022-12-07T01:41:57;17.30;78.30
72883;DHT22;61017;37.812;-122.286;2022-12-07T01:44:19;17.30;78.30
72883;DHT22;61017;37.812;-122.286;2022-12-07T01:46:11;17.30;78.20
72883;DHT22;61017;37.812;-122.286;2022-12-07T01:48:02;17.30;78.30
72883;DHT22;61017;37.812;-122.286;2022-12-07T01:49:52;17.30;78.20
72883;DHT22;61017;37.812;-122.286;2022-12-07T01:51:43;17.20;78.10
72883;DHT22;61017;37.812;-122.286;2022-12-07T01:53:40;17.30;78.20
72883;DHT22;61017;37.812;-122.286;2022-12-07T01:55:30;17.30;78.20
72883;DHT22;61017;37.812;-122.286;2022-12-07T01:57:21;17.30;78.20
72883;DHT22;61017;37.812;-122.286;2022-12-07T01:59:16;17.20;78.00
72883;DHT22;61017;37.812;-122.286;2022-12-07T02:01:07;17.20;78.10
72883;DHT22;61017;37.812;-122.286;2022-12-07T02:03:05;17.20;78.00
72883;DHT22;61017;37.812;-122.286;2022-12-07T02:04:57;17.20;77.90
72883;DHT22;61017;37.812;-122.286;2022-12-07T02:06:55;17.30;78.00
72883;DHT22;61017;37.812;-122.286;2022-12-07T02:08:46;17.20;77.90
72883;DHT22;61017;37.812;-122.286;2022-12-07T02:10:37;17.20;77.80
72883;DHT22;61017;37.812;-122.286;2022-12-07T02:12:27;17.20;77.90
72883;DHT22;61017;37.812;-122.286;2022-12-07T02:14:17;17.20;77.80
72883;DHT22;61017;37.812;-122.286;2022-12-07T02:20:33;17.20;77.80
72883;DHT22;61017;37.812;-122.286;2022-12-07T02:23:07;17.20;77.80
72883;DHT22;61017;37.812;-122.286;2022-12-07T02:29:45;17.20;77.70
72883;DHT22;61017;37.812;-122.286;2022-12-07T02:31:55;17.20;77.80
72883;DHT22;61017;37.812;-122.286;2022-12-07T02:36:04;17.20;77.60
72883;DHT22;61017;37.812;-122.286;2022-12-07T02:42:09;17.20;77.50
72883;DHT22;61017;37.812;-122.286;2022-12-07T02:44:08;17.20;77.50
72883;DHT22;61017;37.812;-122.286;2022-12-07T02:46:04;17.20;77.60
72883;DHT22;61017;37.812;-122.286;2022-12-07T02:47:57;17.20;77.50
72883;DHT22;61017;37.812;-122.286;2022-12-07T02:49:49;17.20;77.50
72883;DHT22;61017;37.812;-122.286;2022-12-07T02:51:43;17.20;77.50
72883;DHT22;61017;37.812;-122.286;2022-12-07T02:53:36;17.20;77.50
72883;DHT22;61017;37.812;-122.286;2022-12-07T02:55:39;17.20;77.50
72883;DHT22;61017;37.812;-122.286;2022-12-07T02:59:59;17.20;77.50
72883;DHT22;61017;37.812;-122.286;2022-12-07T03:03:42;17.20;77.30
72883;DHT22;61017;37.812;-122.286;2022-12-07T03:10:33;17.20;77.40
72883;DHT22;61017;37.812;-122.286;2022-12-07T03:14:56;17.20;76.90
72883;DHT22;61017;37.812;-122.286;2022-12-07T03:17:00;17.20;76.80
72883;DHT22;61017;37.812;-122.286;2022-12-07T03:19:16;17.20;76.60
72883;DHT22;61017;37.812;-122.286;2022-12-07T03:21:14;17.20;76.60
72883;DHT22;61017;37.812;-122.286;2022-12-07T03:23:06;17.20;76.40
72883;DHT22;61017;37.812;-122.286;2022-12-07T03:25:00;17.20;76.40
72883;DHT22;61017;37.812;-122.286;2022-12-07T03:27:11;17.20;76.50
72883;DHT22;61017;37.812;-122.286;2022-12-07T03:29:07;17.20;76.40
72883;DHT22;61017;37.812;-122.286;2022-12-07T03:31:22;17.30;76.40
72883;DHT22;61017;37.812;-122.286;2022-12-07T03:33:28;17.30;76.30
72883;DHT22;61017;37.812;-122.286;2022-12-07T03:35:33;17.30;76.10
72883;DHT22;61017;37.812;-122.286;2022-12-07T03:41:27;17.30;76.00
72883;DHT22;61017;37.812;-122.286;2022-12-07T03:43:19;17.20;76.00
72883;DHT22;61017;37.812;-122.286;2022-12-07T03:45:10;17.30;76.10
72883;DHT22;61017;37.812;-122.286;2022-12-07T03:49:36;17.20;76.10
72883;DHT22;61017;37.812;-122.286;2022-12-07T03:52:03;17.20;76.10
72883;DHT22;61017;37.812;-122.286;2022-12-07T03:54:22;17.20;76.30
72883;DHT22;61017;37.812;-122.286;2022-12-07T03:56:18;17.20;76.30
72883;DHT22;61017;37.812;-122.286;2022-12-07T03:58:19;17.20;76.30
72883;DHT22;61017;37.812;-122.286;2022-12-07T04:00:11;17.20;76.30
72883;DHT22;61017;37.812;-122.286;2022-12-07T04:02:04;17.20;76.30
72883;DHT22;61017;37.812;-122.286;2022-12-07T04:03:54;17.20;76.50
72883;DHT22;61017;37.812;-122.286;2022-12-07T04:05:47;17.20;76.30
72883;DHT22;61017;37.812;-122.286;2022-12-07T04:07:38;17.20;76.40
72883;DHT22;61017;37.812;-122.286;2022-12-07T04:09:28;17.20;76.40
72883;DHT22;61017;37.812;-122.286;2022-12-07T04:11:18;17.20;76.40
72883;DHT22;61017;37.812;-122.286;2022-12-07T04:13:09;17.20;76.40
72883;DHT22;61017;37.812;-122.286;2022-12-07T04:14:59;17.20;76.50
72883;DHT22;61017;37.812;-122.286;2022-12-07T04:16:54;17.20;76.40
72883;DHT22;61017;37.812;-122.286;2022-12-07T04:18:51;17.20;76.30
72883;DHT22;61017;37.812;-122.286;2022-12-07T04:20:40;17.20;76.40
72883;DHT22;61017;37.812;-122.286;2022-12-07T04:22:40;17.30;76.50
72883;DHT22;61017;37.812;-122.286;2022-12-07T04:24:31;17.20;77.10
72883;DHT22;61017;37.812;-122.286;2022-12-07T04:26:22;17.20;76.40
72883;DHT22;61017;37.812;-122.286;2022-12-07T04:28:12;17.20;76.60
72883;DHT22;61017;37.812;-122.286;2022-12-07T04:30:03;17.20;76.60
72883;DHT22;61017;37.812;-122.286;2022-12-07T04:31:54;17.20;76.60
72883;DHT22;61017;37.812;-122.286;2022-12-07T04:33:44;17.20;76.70
72883;DHT22;61017;37.812;-122.286;2022-12-07T04:35:34;17.20;77.30
72883;DHT22;61017;37.812;-122.286;2022-12-07T04:37:24;17.20;79.30
72883;DHT22;61017;37.812;-122.286;2022-12-07T04:39:29;17.20;80.90
72883;DHT22;61017;37.812;-122.286;2022-12-07T04:41:19;17.20;82.70
72883;DHT22;61017;37.812;-122.286;2022-12-07T04:43:10;17.20;83.50
72883;DHT22;61017;37.812;-122.286;2022-12-07T04:45:00;17.20;83.60
72883;DHT22;61017;37.812;-122.286;2022-12-07T04:46:51;17.10;83.10
72883;DHT22;61017;37.812;-122.286;2022-12-07T04:48:41;17.20;83.30
72883;DHT22;61017;37.812;-122.286;2022-12-07T04:50:31;17.20;83.20
72883;DHT22;61017;37.812;-122.286;2022-12-07T04:52:25;17.20;82.80
72883;DHT22;61017;37.812;-122.286;2022-12-07T04:54:16;17.20;82.80
72883;DHT22;61017;37.812;-122.286;2022-12-07T04:56:07;17.20;82.60
72883;DHT22;61017;37.812;-122.286;2022-12-07T04:57:57;17.20;82.30
72883;DHT22;61017;37.812;-122.286;2022-12-07T04:59:46;17.20;82.20
72883;DHT22;61017;37.812;-122.286;2022-12-07T05:01:36;17.20;82.10
72883;DHT22;61017;37.812;-122.286;2022-12-07T05:03:27;17.20;81.90
72883;DHT22;61017;37.812;-122.286;2022-12-07T05:05:17;17.20;81.90
72883;DHT22;61017;37.812;-122.286;2022-12-07T05:07:07;17.20;81.70
72883;DHT22;61017;37.812;-122.286;2022-12-07T05:08:57;17.20;81.40
72883;DHT22;61017;37.812;-122.286;2022-12-07T05:10:49;17.20;81.40
72883;DHT22;61017;37.812;-122.286;2022-12-07T05:12:39;17.20;81.40
72883;DHT22;61017;37.812;-122.286;2022-12-07T05:14:29;17.20;81.40
72883;DHT22;61017;37.812;-122.286;2022-12-07T05:16:20;17.20;81.60
72883;DHT22;61017;37.812;-122.286;2022-12-07T05:18:11;17.20;81.70
72883;DHT22;61017;37.812;-122.286;2022-12-07T05:20:01;17.20;81.70
72883;DHT22;61017;37.812;-122.286;2022-12-07T05:21:52;17.20;81.80
72883;DHT22;61017;37.812;-122.286;2022-12-07T05:23:42;17.20;81.80
72883;DHT22;61017;37.812;-122.286;2022-12-07T05:25:32;17.20;81.70
72883;DHT22;61017;37.812;-122.286;2022-12-07T05:27:23;17.20;81.70
72883;DHT22;61017;37.812;-122.286;2022-12-07T05:29:16;17.20;81.70
72883;DHT22;61017;37.812;-122.286;2022-12-07T05:31:07;17.20;81.80
72883;DHT22;61017;37.812;-122.286;2022-12-07T05:33:06;17.20;81.70
72883;DHT22;61017;37.812;-122.286;2022-12-07T05:34:56;17.20;81.60
72883;DHT22;61017;37.812;-122.286;2022-12-07T05:36:46;17.10;81.40
72883;DHT22;61017;37.812;-122.286;2022-12-07T05:38:36;17.10;81.50
72883;DHT22;61017;37.812;-122.286;2022-12-07T05:40:26;17.10;81.30
72883;DHT22;61017;37.812;-122.286;2022-12-07T05:42:17;17.10;81.30
72883;DHT22;61017;37.812;-122.286;2022-12-07T05:44:07;17.10;81.90
72883;DHT22;61017;37.812;-122.286;2022-12-07T05:45:57;17.10;81.70
72883;DHT22;61017;37.812;-122.286;2022-12-07T05:47:47;17.10;81.20
72883;DHT22;61017;37.812;-122.286;2022-12-07T05:49:37;17.10;81.30
72883;DHT22;61017;37.812;-122.286;2022-12-07T05:51:28;17.20;81.40
72883;DHT22;61017;37.812;-122.286;2022-12-07T05:53:19;17.20;81.40
72883;DHT22;61017;37.812;-122.286;2022-12-07T05:55:10;17.20;81.30
72883;DHT22;61017;37.812;-122.286;2022-12-07T05:57:00;17.20;81.10
72883;DHT22;61017;37.812;-122.286;2022-12-07T05:58:50;17.20;81.00
72883;DHT22;61017;37.812;-122.286;2022-12-07T06:00:40;17.20;80.90
72883;DHT22;61017;37.812;-122.286;2022-12-07T06:02:30;17.20;80.80
72883;DHT22;61017;37.812;-122.286;2022-12-07T06:04:21;17.20;80.80
72883;DHT22;61017;37.812;-122.286;2022-12-07T06:06:14;17.20;80.70
72883;DHT22;61017;37.812;-122.286;2022-12-07T06:08:24;17.20;80.60
72883;DHT22;61017;37.812;-122.286;2022-12-07T06:10:14;17.20;80.60
72883;DHT22;61017;37.812;-122.286;2022-12-07T06:12:05;17.20;80.50
72883;DHT22;61017;37.812;-122.286;2022-12-07T06:14:03;17.20;80.60
72883;DHT22;61017;37.812;-122.286;2022-12-07T06:15:59;17.20;80.60
72883;DHT22;61017;37.812;-122.286;2022-12-07T06:17:49;17.20;80.60
72883;DHT22;61017;37.812;-122.286;2022-12-07T06:19:39;17.20;80.40
72883;DHT22;61017;37.812;-122.286;2022-12-07T06:21:29;17.20;80.40
72883;DHT22;61017;37.812;-122.286;2022-12-07T06:23:19;17.20;80.40
72883;DHT22;61017;37.812;-122.286;2022-12-07T06:25:09;17.20;80.40
72883;DHT22;61017;37.812;-122.286;2022-12-07T06:26:59;17.20;80.30
72883;DHT22;61017;37.812;-122.286;2022-12-07T06:28:49;17.20;80.20
72883;DHT22;61017;37.812;-122.286;2022-12-07T06:30:39;17.20;80.10
72883;DHT22;61017;37.812;-122.286;2022-12-07T06:32:29;17.30;80.10
72883;DHT22;61017;37.812;-122.286;2022-12-07T06:34:25;17.30;80.10
72883;DHT22;61017;37.812;-122.286;2022-12-07T06:36:15;17.30;80.10
72883;DHT22;61017;37.812;-122.286;2022-12-07T06:38:06;17.30;80.00
72883;DHT22;61017;37.812;-122.286;2022-12-07T06:39:56;17.20;80.00
72883;DHT22;61017;37.812;-122.286;2022-12-07T06:41:47;17.20;79.90
72883;DHT22;61017;37.812;-122.286;2022-12-07T06:43:37;17.20;79.90
72883;DHT22;61017;37.812;-122.286;2022-12-07T06:45:27;17.20;79.90
72883;DHT22;61017;37.812;-122.286;2022-12-07T06:47:20;17.20;80.00
72883;DHT22;61017;37.812;-122.286;2022-12-07T06:49:12;17.20;80.00
72883;DHT22;61017;37.812;-122.286;2022-12-07T06:51:02;17.20;80.00
72883;DHT22;61017;37.812;-122.286;2022-12-07T06:52:53;17.20;80.00
72883;DHT22;61017;37.812;-122.286;2022-12-07T06:54:43;17.20;80.00
72883;DHT22;61017;37.812;-122.286;2022-12-07T06:56:33;17.20;79.90
72883;DHT22;61017;37.812;-122.286;2022-12-07T06:58:23;17.30;79.90
72883;DHT22;61017;37.812;-122.286;2022-12-07T07:00:14;17.30;79.90
72883;DHT22;61017;37.812;-122.286;2022-12-07T07:02:04;17.30;79.80
72883;DHT22;61017;37.812;-122.286;2022-12-07T07:03:55;17.30;79.60
72883;DHT22;61017;37.812;-122.286;2022-12-07T07:05:45;17.30;79.50
72883;DHT22;61017;37.812;-122.286;2022-12-07T07:09:38;17.20;78.70
72883;DHT22;61017;37.812;-122.286;2022-12-07T07:11:28;17.30;80.00
72883;DHT22;61017;37.812;-122.286;2022-12-07T07:13:17;17.20;79.80
72883;DHT22;61017;37.812;-122.286;2022-12-07T07:15:08;17.20;79.90
72883;DHT22;61017;37.812;-122.286;2022-12-07T07:16:58;17.20;79.80
72883;DHT22;61017;37.812;-122.286;2022-12-07T07:18:48;17.20;79.70
72883;DHT22;61017;37.812;-122.286;2022-12-07T07:20:38;17.20;79.70
72883;DHT22;61017;37.812;-122.286;2022-12-07T07:22:28;17.20;79.70
72883;DHT22;61017;37.812;-122.286;2022-12-07T07:24:17;17.20;79.60
72883;DHT22;61017;37.812;-122.286;2022-12-07T07:26:07;17.20;79.60
72883;DHT22;61017;37.812;-122.286;2022-12-07T07:27:57;17.20;79.60
72883;DHT22;61017;37.812;-122.286;2022-12-07T07:29:48;17.20;79.60
72883;DHT22;61017;37.812;-122.286;2022-12-07T07:31:37;17.10;79.40
72883;DHT22;61017;37.812;-122.286;2022-12-07T07:33:27;17.20;79.50
72883;DHT22;61017;37.812;-122.286;2022-12-07T07:35:17;17.20;79.40
72883;DHT22;61017;37.812;-122.286;2022-12-07T07:37:07;17.20;79.40
72883;DHT22;61017;37.812;-122.286;2022-12-07T07:38:57;17.10;79.30
72883;DHT22;61017;37.812;-122.286;2022-12-07T07:40:48;17.10;79.30
72883;DHT22;61017;37.812;-122.286;2022-12-07T07:42:37;17.10;79.30
72883;DHT22;61017;37.812;-122.286;2022-12-07T07:44:28;17.10;79.30
72883;DHT22;61017;37.812;-122.286;2022-12-07T07:46:18;17.10;79.30
72883;DHT22;61017;37.812;-122.286;2022-12-07T07:48:08;17.10;79.30
72883;DHT22;61017;37.812;-122.286;2022-12-07T07:49:59;17.10;79.30
72883;DHT22;61017;37.812;-122.286;2022-12-07T07:51:50;17.10;79.20
72883;DHT22;61017;37.812;-122.286;2022-12-07T07:53:40;17.10;79.20
72883;DHT22;61017;37.812;-122.286;2022-12-07T07:55:30;17.10;79.20
72883;DHT22;61017;37.812;-122.286;2022-12-07T07:57:20;17.10;79.20
72883;DHT22;61017;37.812;-122.286;2022-12-07T07:59:10;17.10;79.10
72883;DHT22;61017;37.812;-122.286;2022-12-07T08:01:07;17.00;79.00
72883;DHT22;61017;37.812;-122.286;2022-12-07T08:02:59;17.00;79.00
72883;DHT22;61017;37.812;-122.286;2022-12-07T08:04:49;17.00;79.00
72883;DHT22;61017;37.812;-122.286;2022-12-07T08:06:39;17.00;78.90
72883;DHT22;61017;37.812;-122.286;2022-12-07T08:08:29;17.00;78.90
72883;DHT22;61017;37.812;-122.286;2022-12-07T08:10:19;17.00;78.90
72883;DHT22;61017;37.812;-122.286;2022-12-07T08:12:09;17.00;78.90
72883;DHT22;61017;37.812;-122.286;2022-12-07T08:13:59;17.00;78.90
72883;DHT22;61017;37.812;-122.286;2022-12-07T08:15:49;17.00;78.90
72883;DHT22;61017;37.812;-122.286;2022-12-07T08:17:39;17.00;78.90
72883;DHT22;61017;37.812;-122.286;2022-12-07T08:19:31;17.00;78.90
72883;DHT22;61017;37.812;-122.286;2022-12-07T08:21:21;17.00;78.90
72883;DHT22;61017;37.812;-122.286;2022-12-07T08:23:11;17.00;79.60
72883;DHT22;61017;37.812;-122.286;2022-12-07T08:25:01;17.00;78.80
72883;DHT22;61017;37.812;-122.286;2022-12-07T08:26:52;16.90;78.60
72883;DHT22;61017;37.812;-122.286;2022-12-07T08:28:42;16.90;78.60
72883;DHT22;61017;37.812;-122.286;2022-12-07T08:30:33;16.90;78.40
72883;DHT22;61017;37.812;-122.286;2022-12-07T08:32:23;16.90;78.60
72883;DHT22;61017;37.812;-122.286;2022-12-07T08:34:13;16.90;78.60
72883;DHT22;61017;37.812;-122.286;2022-12-07T08:36:06;16.90;78.80
72883;DHT22;61017;37.812;-122.286;2022-12-07T08:37:57;16.90;78.80
72883;DHT22;61017;37.812;-122.286;2022-12-07T08:39:47;16.90;78.80
72883;DHT22;61017;37.812;-122.286;2022-12-07T08:41:37;16.90;78.80
72883;DHT22;61017;37.812;-122.286;2022-12-07T08:43:26;16.90;78.80
72883;DHT22;61017;37.812;-122.286;2022-12-07T08:45:19;16.90;78.80
72883;DHT22;61017;37.812;-122.286;2022-12-07T08:47:10;16.90;78.90
72883;DHT22;61017;37.812;-122.286;2022-12-07T08:49:08;16.90;78.90
72883;DHT22;61017;37.812;-122.286;2022-12-07T08:51:01;16.90;78.80
72883;DHT22;61017;37.812;-122.286;2022-12-07T08:52:55;16.80;78.60
72883;DHT22;61017;37.812;-122.286;2022-12-07T08:54:47;16.80;78.60
72883;DHT22;61017;37.812;-122.286;2022-12-07T08:56:41;16.80;78.50
72883;DHT22;61017;37.812;-122.286;2022-12-07T08:58:33;16.80;78.40
72883;DHT22;61017;37.812;-122.286;2022-12-07T09:00:25;16.80;78.30
72883;DHT22;61017;37.812;-122.286;2022-12-07T09:02:15;16.80;78.20
72883;DHT22;61017;37.812;-122.286;2022-12-07T09:04:05;16.80;77.90
72883;DHT22;61017;37.812;-122.286;2022-12-07T09:05:55;16.80;78.20
72883;DHT22;61017;37.812;-122.286;2022-12-07T09:07:48;16.80;78.20
72883;DHT22;61017;37.812;-122.286;2022-12-07T09:09:39;16.80;78.00
72883;DHT22;61017;37.812;-122.286;2022-12-07T09:11:29;16.80;78.00
72883;DHT22;61017;37.812;-122.286;2022-12-07T09:13:19;16.80;77.80
72883;DHT22;61017;37.812;-122.286;2022-12-07T09:15:10;16.80;77.80
72883;DHT22;61017;37.812;-122.286;2022-12-07T09:17:08;16.80;77.80
72883;DHT22;61017;37.812;-122.286;2022-12-07T09:18:58;16.80;77.90
72883;DHT22;61017;37.812;-122.286;2022-12-07T09:20:48;16.70;77.60
72883;DHT22;61017;37.812;-122.286;2022-12-07T09:22:38;16.80;77.60
72883;DHT22;61017;37.812;-122.286;2022-12-07T09:24:28;16.70;77.50
72883;DHT22;61017;37.812;-122.286;2022-12-07T09:26:18;16.70;77.50
72883;DHT22;61017;37.812;-122.286;2022-12-07T09:28:08;16.70;77.50
72883;DHT22;61017;37.812;-122.286;2022-12-07T09:29:59;16.70;77.40
72883;DHT22;61017;37.812;-122.286;2022-12-07T09:31:49;16.70;77.30
72883;DHT22;61017;37.812;-122.286;2022-12-07T09:33:40;16.70;77.50
72883;DHT22;61017;37.812;-122.286;2022-12-07T09:35:30;16.70;77.50
72883;DHT22;61017;37.812;-122.286;2022-12-07T09:37:20;16.70;77.50
72883;DHT22;61017;37.812;-122.286;2022-12-07T09:39:10;16.70;77.30
72883;DHT22;61017;37.812;-122.286;2022-12-07T09:41:07;16.70;77.50
72883;DHT22;61017;37.812;-122.286;2022-12-07T09:42:58;16.60;77.30
72883;DHT22;61017;37.812;-122.286;2022-12-07T09:44:48;16.70;77.60
72883;DHT22;61017;37.812;-122.286;2022-12-07T09:46:40;16.60;77.30
72883;DHT22;61017;37.812;-122.286;2022-12-07T09:48:37;16.60;77.20
72883;DHT22;61017;37.812;-122.286;2022-12-07T09:50:29;16.60;77.30
72883;DHT22;61017;37.812;-122.286;2022-12-07T09:52:30;16.60;77.20
72883;DHT22;61017;37.812;-122.286;2022-12-07T09:54:20;16.60;77.30
72883;DHT22;61017;37.812;-122.286;2022-12-07T09:56:17;16.60;77.30
72883;DHT22;61017;37.812;-122.286;2022-12-07T09:58:22;16.60;77.30
72883;DHT22;61017;37.812;-122.286;2022-12-07T10:00:15;16.60;77.20
72883;DHT22;61017;37.812;-122.286;2022-12-07T10:02:46;16.60;77.10
72883;DHT22;61017;37.812;-122.286;2022-12-07T10:04:38;16.60;77.20
72883;DHT22;61017;37.812;-122.286;2022-12-07T10:06:28;16.60;77.30
72883;DHT22;61017;37.812;-122.286;2022-12-07T10:08:18;16.50;77.00
72883;DHT22;61017;37.812;-122.286;2022-12-07T10:10:34;16.50;77.00
72883;DHT22;61017;37.812;-122.286;2022-12-07T10:12:24;16.50;77.00
72883;DHT22;61017;37.812;-122.286;2022-12-07T10:14:15;16.50;77.00
72883;DHT22;61017;37.812;-122.286;2022-12-07T10:16:06;16.50;76.80
72883;DHT22;61017;37.812;-122.286;2022-12-07T10:18:31;16.50;76.80
72883;DHT22;61017;37.812;-122.286;2022-12-07T10:20:25;16.50;76.80
72883;DHT22;61017;37.812;-122.286;2022-12-07T10:22:17;16.50;76.90
72883;DHT22;61017;37.812;-122.286;2022-12-07T10:26:21;16.50;76.80
72883;DHT22;61017;37.812;-122.286;2022-12-07T10:28:16;16.40;76.60
72883;DHT22;61017;37.812;-122.286;2022-12-07T10:30:12;16.40;76.70
72883;DHT22;61017;37.812;-122.286;2022-12-07T10:32:06;16.40;76.70
72883;DHT22;61017;37.812;-122.286;2022-12-07T10:34:26;16.40;76.60
72883;DHT22;61017;37.812;-122.286;2022-12-07T10:36:20;16.40;77.10
72883;DHT22;61017;37.812;-122.286;2022-12-07T10:38:15;16.40;77.80
72883;DHT22;61017;37.812;-122.286;2022-12-07T10:42:21;16.50;76.60
72883;DHT22;61017;37.812;-122.286;2022-12-07T10:44:22;16.50;76.60
72883;DHT22;61017;37.812;-122.286;2022-12-07T10:48:25;16.40;76.10
72883;DHT22;61017;37.812;-122.286;2022-12-07T10:50:39;16.40;76.10
72883;DHT22;61017;37.812;-122.286;2022-12-07T10:59:29;16.40;76.90
72883;DHT22;61017;37.812;-122.286;2022-12-07T11:06:19;16.40;77.10
72883;DHT22;61017;37.812;-122.286;2022-12-07T11:15:04;16.30;76.90
72883;DHT22;61017;37.812;-122.286;2022-12-07T11:21:31;16.30;76.80
72883;DHT22;61017;37.812;-122.286;2022-12-07T11:25:46;16.30;76.80
72883;DHT22;61017;37.812;-122.286;2022-12-07T11:28:00;16.20;76.80
72883;DHT22;61017;37.812;-122.286;2022-12-07T11:30:20;16.30;76.90
72883;DHT22;61017;37.812;-122.286;2022-12-07T11:37:38;16.20;76.50
72883;DHT22;61017;37.812;-122.286;2022-12-07T11:39:37;16.20;76.60
72883;DHT22;61017;37.812;-122.286;2022-12-07T11:41:35;16.20;76.50
72883;DHT22;61017;37.812;-122.286;2022-12-07T11:43:31;16.20;76.50
72883;DHT22;61017;37.812;-122.286;2022-12-07T11:45:28;16.20;76.40
72883;DHT22;61017;37.812;-122.286;2022-12-07T11:48:12;16.20;76.40
72883;DHT22;61017;37.812;-122.286;2022-12-07T11:51:39;16.10;76.30
72883;DHT22;61017;37.812;-122.286;2022-12-07T11:55:50;16.10;76.30
72883;DHT22;61017;37.812;-122.286;2022-12-07T11:57:43;16.10;76.10
72883;DHT22;61017;37.812;-122.286;2022-12-07T11:59:52;16.10;76.20
72883;DHT22;61017;37.812;-122.286;2022-12-07T12:01:58;16.10;76.20
72883;DHT22;61017;37.812;-122.286;2022-12-07T12:04:35;16.10;76.10
72883;DHT22;61017;37.812;-122.286;2022-12-07T12:06:22;16.10;76.10
72883;DHT22;61017;37.812;-122.286;2022-12-07T12:08:27;16.00;75.90
72883;DHT22;61017;37.812;-122.286;2022-12-07T12:14:52;16.00;75.90
72883;DHT22;61017;37.812;-122.286;2022-12-07T12:18:48;16.00;75.80
72883;DHT22;61017;37.812;-122.286;2022-12-07T12:20:50;16.00;75.90
72883;DHT22;61017;37.812;-122.286;2022-12-07T12:23:13;16.00;75.70
72883;DHT22;61017;37.812;-122.286;2022-12-07T12:25:07;16.00;75.80
72883;DHT22;61017;37.812;-122.286;2022-12-07T12:27:14;16.00;75.70
72883;DHT22;61017;37.812;-122.286;2022-12-07T12:29:32;16.00;75.30
72883;DHT22;61017;37.812;-122.286;2022-12-07T12:33:29;15.90;75.40
72883;DHT22;61017;37.812;-122.286;2022-12-07T12:39:23;16.00;75.40
72883;DHT22;61017;37.812;-122.286;2022-12-07T12:43:49;16.00;75.20
72883;DHT22;61017;37.812;-122.286;2022-12-07T12:45:39;16.00;75.10
72883;DHT22;61017;37.812;-122.286;2022-12-07T12:47:42;16.00;74.90
72883;DHT22;61017;37.812;-122.286;2022-12-07T12:49:40;16.00;74.80
72883;DHT22;61017;37.812;-122.286;2022-12-07T12:51:40;15.90;75.00
72883;DHT22;61017;37.812;-122.286;2022-12-07T12:53:34;15.90;75.20
72883;DHT22;61017;37.812;-122.286;2022-12-07T12:57:38;15.90;75.00
72883;DHT22;61017;37.812;-122.286;2022-12-07T12:59:34;15.90;75.10
72883;DHT22;61017;37.812;-122.286;2022-12-07T13:01:45;15.90;75.00